Latest Weather Observations for Whyalla

IDS60801

Issued at 3:11 pm CST Thursday 26 May 2022 (issued every 10 minutes, with the page automatically refreshed every 10 minutes)

About weather observations | Map of weather stations | Latest weather observations for SA | Other Formats
Station Details ID: 018120 Name: WHYALLA AERO Lat: -33.05 Lon: 137.52 Height: 9.3 m
Data from the previous 72 hours. | See also: Recent months at Whyalla
Date/Time
CST
Temp
°C
App
Temp
°C
Dew
Point
°C
Rel
Hum
%
Delta-T
°C
Wind Press
QNH
hPa
Press
MSL
hPa
Rain since
9am
mm
Dir  Spd
km/h
Gust
km/h
Spd
kts
Gust
kts
26/03:00pm 17.3 15.3 12.6 74 2.6 SSE 15 19 8 10 1018.2 1018.2 0.0
26/02:30pm 17.6 15.7 12.9 74 2.6 SE 15 20 8 11 1018.3 1018.3 0.0
26/02:00pm 17.5 16.3 12.8 74 2.6 SE 11 19 6 10 1018.2 1018.2 0.0
26/01:30pm 17.5 16.4 13.0 75 2.5 SSE 11 17 6 9 1018.1 1018.1 0.0
26/01:00pm 17.7 16.2 13.2 75 2.5 SSE 13 20 7 11 1018.1 1018.1 0.0
26/12:30pm 17.7 15.9 12.2 70 3.0 SSW 13 19 7 10 1018.3 1018.3 0.0
26/12:00pm 17.6 16.6 12.3 71 2.9 SSW 9 15 5 8 1018.6 1018.6 0.0
26/11:30am 17.4 16.1 12.5 73 2.7 WSW 11 19 6 10 1018.9 1018.9 0.0
26/11:06am 17.1 16.2 13.6 80 2.0 SW 11 17 6 9 1019.2 1019.2 0.0
26/11:00am 16.9 15.8 13.2 79 2.1 SW 11 19 6 10 1019.1 1019.1 0.0
26/10:50am 16.8 16.3 13.9 83 1.6 WSW 9 13 5 7 1019.2 1019.2 0.0
26/10:30am 16.2 14.8 13.5 84 1.5 W 13 20 7 11 1019.2 1019.2 0.0
26/10:00am 15.6 14.0 14.0 90 0.9 W 15 19 8 10 1019.2 1019.2 0.0
26/09:30am 14.7 13.5 13.9 95 0.4 W 13 22 7 12 1018.9 1018.9 0.0
26/09:00am 13.6 13.0 13.4 99 0.1 NW 9 13 5 7 1018.7 1018.7 2.2
26/08:30am 12.3 11.6 12.1 99 0.1 NNW 7 9 4 5 1018.6 1018.6 2.2
26/08:00am 11.7 10.5 11.5 99 0.1 NW 9 11 5 6 1018.4 1018.4 2.2
26/07:30am 10.9 9.4 10.7 99 0.1 NW 9 13 5 7 1018.0 1018.0 2.2
26/07:00am 10.7 9.8 10.5 99 0.1 NW 6 9 3 5 1017.7 1017.7 2.2
26/06:30am 10.4 7.7 10.2 99 0.1 WNW 15 15 8 8 1017.3 1017.3 2.2
26/06:00am 10.3 8.7 10.1 99 0.1 NW 9 13 5 7 1016.9 1016.9 2.2
26/05:30am 10.3 7.9 10.1 99 0.1 N 13 13 7 7 1016.5 1016.5 2.2
26/05:00am 10.7 9.2 10.5 99 0.1 NNW 9 13 5 7 1016.5 1016.5 2.2
26/04:30am 10.5 8.2 10.3 99 0.1 NNW 13 15 7 8 1016.2 1016.2 2.2
26/04:00am 10.5 8.5 10.2 98 0.2 NW 11 11 6 6 1016.2 1016.2 2.2
26/03:30am 10.8 8.5 10.5 98 0.2 NW 13 15 7 8 1016.0 1016.0 2.2
26/03:00am 11.1 8.5 10.8 98 0.2 NW 15 17 8 9 1016.1 1016.1 2.2
26/02:30am 10.8 9.3 10.5 98 0.2 N 9 11 5 6 1016.0 1016.0 2.2
26/02:00am 11.5 10.6 11.2 98 0.2 NNW 7 11 4 6 1016.1 1016.1 2.2
26/01:30am 11.4 10.4 11.1 98 0.2 NW 7 9 4 5 1016.1 1016.1 2.2
26/01:00am 12.3 11.7 11.8 97 0.3 NW 6 6 3 3 1016.0 1016.0 2.2
26/12:30am 12.5 11.8 12.0 97 0.3 W 7 11 4 6 1016.1 1016.1 2.2
26/12:00am 13.1 12.6 12.6 97 0.3 N 7 11 4 6 1016.2 1016.2 2.0
 
Date/Time
CST
Temp
°C
App
Temp
°C
Dew
Point
°C
Rel
Hum
%
Delta-T
°C
Wind Press
QNH
hPa
Press
MSL
hPa
Rain since
9am
mm
Dir  Spd
km/h
Gust
km/h
Spd
kts
Gust
kts
25/11:30pm 13.0 11.7 12.5 97 0.3 WNW 11 13 6 7 1016.1 1016.1 2.0
25/11:00pm 13.6 12.8 13.0 96 0.3 WNW 9 11 5 6 1015.9 1015.9 2.0
25/10:30pm 14.4 13.1 13.8 96 0.3 WNW 13 17 7 9 1015.8 1015.8 2.0
25/10:00pm 14.7 13.5 14.1 96 0.3 WNW 13 15 7 8 1015.8 1015.8 2.0
25/09:30pm 14.7 13.9 14.1 96 0.3 WNW 11 13 6 7 1015.7 1015.7 2.0
25/09:00pm 14.9 14.1 14.1 95 0.5 NW 11 13 6 7 1015.6 1015.6 2.0
25/08:30pm 15.1 15.1 14.3 95 0.5 W 7 9 4 5 1015.4 1015.4 2.0
25/08:00pm 15.2 14.5 14.2 94 0.6 W 11 15 6 8 1015.3 1015.3 1.8
25/07:41pm 15.4 13.2 14.3 93 0.6 W 19 28 10 15 1015.4 1015.4 1.6
25/07:30pm 15.5 13.1 14.4 93 0.6 W 20 28 11 15 1015.4 1015.4 1.2
25/07:27pm 15.6 12.9 14.5 93 0.6 W 22 30 12 16 1015.4 1015.4 1.0
25/07:00pm 14.9 14.0 12.6 86 1.3 NNW 9 9 5 5 1014.7 1014.7 0.0
25/06:30pm 15.1 13.8 12.4 84 1.5 NNW 11 11 6 6 1014.4 1014.4 0.0
25/06:00pm 16.1 15.3 12.8 81 1.8 NNW 9 9 5 5 1014.1 1014.1 0.0
25/05:30pm 17.7 16.6 13.0 74 2.6 NW 11 15 6 8 1013.7 1013.7 0.0
25/05:00pm 19.1 17.6 13.1 68 3.4 NW 13 19 7 10 1013.3 1013.3 0.0
25/04:30pm 19.8 16.5 12.8 64 3.9 NW 22 30 12 16 1013.4 1013.4 0.0
25/04:00pm 20.3 18.2 13.7 66 3.8 NW 17 28 9 15 1013.2 1013.2 0.0
25/03:30pm 19.7 17.2 14.1 70 3.2 WNW 20 28 11 15 1013.3 1013.3 0.0
25/03:00pm 19.3 17.1 14.8 75 2.6 WNW 20 28 11 15 1013.3 1013.3 0.0
25/02:30pm 18.9 16.8 14.6 76 2.5 NW 19 22 10 12 1013.4 1013.4 0.0
25/02:00pm 18.8 16.7 14.7 77 2.4 WNW 19 28 10 15 1013.4 1013.4 0.0
25/01:30pm 18.7 17.1 15.0 79 2.2 WNW 17 20 9 11 1013.5 1013.5 0.0
25/01:00pm 18.4 16.1 14.7 79 2.1 NNW 20 28 11 15 1013.7 1013.7 0.0
25/12:30pm 18.6 14.8 14.7 78 2.3 NNW 28 37 15 20 1013.9 1013.9 0.0
25/12:00pm 19.0 15.0 15.1 78 2.3 NNW 30 41 16 22 1014.3 1014.3 0.0
25/11:30am 18.8 13.7 14.7 77 2.4 NNW 35 46 19 25 1014.5 1014.5 0.0
25/11:00am 18.2 12.5 14.3 78 2.2 NNW 37 52 20 28 1014.7 1014.7 0.0
25/10:30am 17.9 12.2 14.2 79 2.1 NNW 37 50 20 27 1014.8 1014.8 0.0
25/10:00am 17.3 11.6 14.2 82 1.8 NNW 37 50 20 27 1014.9 1014.9 0.0
25/09:30am 16.9 12.0 14.2 84 1.5 N 33 48 18 26 1015.1 1015.1 0.0
25/09:00am 16.3 12.0 14.3 88 1.1 N 30 44 16 24 1015.2 1015.2 4.0
25/08:30am 15.4 10.9 13.8 90 0.9 N 30 39 16 21 1015.1 1015.1 4.0
25/08:00am 15.1 10.5 13.6 91 0.8 N 30 43 16 23 1015.1 1015.1 4.0
25/07:30am 15.1 9.5 13.3 89 1.0 N 35 44 19 24 1015.0 1015.0 4.0
25/07:00am 14.6 11.1 13.3 92 0.7 N 24 33 13 18 1015.3 1015.3 4.0
25/06:30am 14.4 12.2 13.4 94 0.6 N 17 20 9 11 1015.8 1015.8 3.2
25/06:00am 14.7 12.5 13.4 92 0.7 NNW 17 22 9 12 1015.8 1015.8 2.0
25/05:30am 14.9 12.6 13.1 89 1.0 NNW 17 22 9 12 1015.3 1015.3 1.2
25/05:00am 15.2 12.4 13.1 87 1.2 N 20 30 11 16 1014.9 1014.9 0.8
25/04:30am 15.5 12.6 13.0 85 1.4 N 20 30 11 16 1015.0 1015.0 0.4
25/04:00am 14.8 12.4 12.8 88 1.1 N 17 20 9 11 1014.8 1014.8 0.4
25/03:30am 15.1 12.4 13.0 87 1.2 NNW 19 24 10 13 1015.1 1015.1 0.4
25/03:00am 15.8 12.8 12.5 81 1.8 N 20 30 11 16 1015.0 1015.0 0.4
25/02:30am 15.5 13.4 12.4 82 1.7 NNW 15 19 8 10 1015.6 1015.6 0.2
25/02:00am 16.5 14.4 12.3 76 2.3 N 15 20 8 11 1015.7 1015.7 0.2
25/01:30am 16.6 14.5 12.4 76 2.3 NNE 15 22 8 12 1015.9 1015.9 0.2
25/01:00am 16.1 14.4 12.5 79 2.0 NNE 13 19 7 10 1016.0 1016.0 0.2
25/12:30am 16.3 14.6 12.5 78 2.1 NNE 13 19 7 10 1016.5 1016.5 0.2
25/12:00am 16.5 14.9 12.7 78 2.1 NNE 13 20 7 11 1017.1 1017.1 0.2
 
Date/Time
CST
Temp
°C
App
Temp
°C
Dew
Point
°C
Rel
Hum
%
Delta-T
°C
Wind Press
QNH
hPa
Press
MSL
hPa
Rain since
9am
mm
Dir  Spd
km/h
Gust
km/h
Spd
kts
Gust
kts
24/11:30pm 16.0 14.8 12.9 82 1.7 NNE 11 15 6 8 1017.4 1017.4 0.2
24/11:00pm 16.6 14.2 12.6 77 2.2 NNE 17 22 9 12 1017.6 1017.6 0.2
24/10:30pm 16.3 13.9 12.5 78 2.1 NNE 17 24 9 13 1017.6 1017.6 0.0
24/10:00pm 16.6 14.0 12.0 74 2.5 NNE 17 22 9 12 1018.4 1018.4 0.0
24/09:30pm 18.3 15.2 10.2 59 4.3 N 17 20 9 11 1018.2 1018.2 0.0
24/09:00pm 16.9 14.6 10.3 65 3.5 N 13 17 7 9 1018.1 1018.1 0.0
24/08:30pm 16.0 14.3 9.7 66 3.3 N 9 13 5 7 1018.2 1018.2 0.0
24/08:00pm 16.6 15.4 9.5 63 3.7 N 6 6 3 3 1017.8 1017.8 0.0
24/07:30pm 17.4 16.3 9.8 61 4.0 NNW 6 7 3 4 1017.6 1017.6 0.0
24/07:00pm 18.2 16.5 9.8 58 4.4 N 9 13 5 7 1017.5 1017.5 0.0
24/06:30pm 18.4 16.1 10.3 59 4.3 NNE 13 17 7 9 1017.3 1017.3 0.0
24/06:00pm 18.7 16.7 10.3 58 4.5 NNE 11 15 6 8 1017.1 1017.1 0.0
24/05:30pm 19.0 17.4 10.3 57 4.7 NE 9 13 5 7 1016.9 1016.9 0.0
24/05:00pm 19.6 17.6 10.3 55 5.0 NNE 11 17 6 9 1016.9 1016.9 0.0
24/04:30pm 19.9 17.6 10.3 54 5.2 NNE 13 22 7 12 1017.1 1017.1 0.0
24/04:00pm 20.2 16.5 10.3 53 5.3 N 20 28 11 15 1017.4 1017.4 0.0
24/03:30pm 20.3 15.8 10.1 52 5.5 N 24 33 13 18 1017.6 1017.6 0.0
24/03:00pm 20.3 15.4 10.1 52 5.5 N 26 39 14 21 1017.7 1017.7 0.0
24/02:30pm 20.6 15.7 10.1 51 5.7 N 26 37 14 20 1017.8 1017.8 0.0
24/02:00pm 20.5 15.6 10.0 51 5.6 N 26 39 14 21 1018.1 1018.1 0.0
24/01:30pm 20.2 15.7 10.0 52 5.5 N 24 32 13 17 1018.4 1018.4 0.0
24/01:00pm 20.1 16.3 9.9 52 5.5 N 20 28 11 15 1018.8 1018.8 0.0
24/12:30pm 19.8 15.3 10.2 54 5.2 N 24 33 13 18 1019.1 1019.1 0.0
24/12:00pm 19.2 15.4 9.9 55 4.9 NNE 20 26 11 14 1019.5 1019.5 0.0
24/11:30am 18.8 15.6 10.1 57 4.6 N 17 26 9 14 1020.3 1020.3 0.0
24/11:00am 17.8 17.1 11.4 66 3.5 NNE 6 11 3 6 1021.0 1021.0 0.0
24/10:30am 16.0 15.2 11.0 72 2.7 NNW 6 7 3 4 1021.2 1021.2 0.0
24/10:00am 14.5 14.6 10.1 75 2.3 CALM 0 0 0 0 1021.4 1021.4 0.0
24/09:30am 13.6 12.8 9.6 77 2.0 NW 4 7 2 4 1021.5 1021.5 0.0
24/09:00am 12.6 11.3 9.2 80 1.7 NW 6 9 3 5 1021.5 1021.5 0.0
24/08:30am 11.4 9.7 8.4 82 1.5 NW 7 9 4 5 1021.7 1021.7 0.0
24/08:00am 10.4 8.2 7.8 84 1.3 NNW 9 11 5 6 1021.6 1021.6 0.0
24/07:30am 9.9 8.0 7.5 85 1.1 NW 7 9 4 5 1021.7 1021.7 0.0
24/07:00am 10.0 7.7 7.4 84 1.2 WNW 9 13 5 7 1021.6 1021.6 0.0
24/06:30am 9.9 8.1 7.3 84 1.2 WNW 6 9 3 5 1021.7 1021.7 0.0
24/06:00am 10.0 8.2 7.3 83 1.3 WNW 6 7 3 4 1021.2 1021.2 0.0
24/05:30am 10.2 8.3 7.4 83 1.3 WNW 7 9 4 5 1021.1 1021.1 0.0
24/05:00am 10.2 7.9 7.6 84 1.2 WNW 9 11 5 6 1021.1 1021.1 0.0
24/04:30am 10.4 7.8 7.6 83 1.3 WNW 11 13 6 7 1021.0 1021.0 0.0
24/04:00am 11.0 8.0 7.9 81 1.5 NW 13 15 7 8 1020.9 1020.9 0.0
24/03:30am 10.3 8.4 7.5 83 1.3 NW 7 9 4 5 1020.7 1020.7 0.0
24/03:00am 10.8 9.8 7.3 79 1.7 NNW 2 6 1 3 1021.2 1021.2 0.0
24/02:30am 11.5 10.2 7.6 77 1.9 NNE 4 7 2 4 1021.4 1021.4 0.0
24/02:00am 12.3 10.6 7.4 72 2.4 NW 6 9 3 5 1021.8 1021.8 0.0
24/01:30am 14.9 12.6 9.1 68 3.0 NNE 11 15 6 8 1021.7 1021.7 0.0
24/01:00am 12.7 11.2 9.0 78 1.9 NNE 7 11 4 6 1021.7 1021.7 0.0
24/12:30am 11.4 9.9 8.4 82 1.5 NNE 6 7 3 4 1021.9 1021.9 0.0
24/12:00am 12.1 10.9 9.5 84 1.3 NE 6 7 3 4 1022.4 1022.4 0.0
 
Date/Time
CST
Temp
°C
App
Temp
°C
Dew
Point
°C
Rel
Hum
%
Delta-T
°C
Wind Press
QNH
hPa
Press
MSL
hPa
Rain since
9am
mm
Dir  Spd
km/h
Gust
km/h
Spd
kts
Gust
kts
23/11:30pm 12.8 12.8 9.8 82 1.5 CALM 0 6 0 3 1023.2 1023.2 0.0
23/11:00pm 14.3 13.9 11.1 81 1.7 NNE 4 9 2 5 1023.4 1023.4 0.0
23/10:30pm 13.5 12.7 11.2 86 1.2 N 6 7 3 4 1023.1 1023.1 0.0
23/10:00pm 12.9 11.6 11.1 89 0.9 NW 9 13 5 7 1023.3 1023.3 0.0
23/09:30pm 13.5 12.5 10.9 84 1.4 NE 7 9 4 5 1022.9 1022.9 0.0
23/09:00pm 15.1 14.4 11.9 81 1.7 NE 7 9 4 5 1022.7 1022.7 0.0
23/08:30pm 15.2 14.0 12.7 85 1.4 ENE 11 13 6 7 1021.8 1021.8 0.0
23/08:00pm 15.4 14.5 12.7 84 1.5 ENE 9 13 5 7 1021.7 1021.7 0.0
23/07:30pm 15.8 15.1 13.1 84 1.5 E 9 9 5 5 1021.8 1021.8 0.0
23/07:00pm 16.1 15.3 13.0 82 1.7 E 9 11 5 6 1021.7 1021.7 0.0
23/06:30pm 15.9 15.4 12.8 82 1.7 SE 7 9 4 5 1021.8 1021.8 0.0
23/06:00pm 16.8 16.1 13.1 79 2.1 SSE 9 11 5 6 1021.7 1021.7 0.0
23/05:30pm 17.7 16.9 13.0 74 2.6 SSE 9 9 5 5 1021.6 1021.6 0.0
23/05:00pm 18.6 18.0 13.5 72 2.9 SSE 9 9 5 5 1021.5 1021.5 0.0
23/04:30pm 19.3 18.8 12.6 65 3.7 SE 7 9 4 5 1021.3 1021.3 0.0
23/04:00pm 20.3 18.6 12.3 60 4.5 SE 13 19 7 10 1021.3 1021.3 0.0
23/03:30pm 21.3 19.3 11.6 54 5.4 ESE 13 17 7 9 1021.4 1021.4 0.0

Other formats

Comma delimited format used in spreadsheet applications
http://www.bom.gov.au/fwo/IDS60801/IDS60801.95664.axf

JavaScript Object Notation format (JSON) in row-major order
http://www.bom.gov.au/fwo/IDS60801/IDS60801.95664.json

Data quality

Most of these data are generated automatically and are frequently updated. Quality checks on data are not normally performed. It is possible for incorrect values to appear. Refer to information at About Latest Weather Observations and please check the disclaimer before using these data.